Time;durP1;ratioP1;P1;durP2;ratioP2;P2;SDS_P1;SDS_P2;PMS_P1;PMS_P2;Temp;Humidity;BMP_temperature;BMP_pressure;BME280_temperature;BME280_humidity;BME280_pressure;Samples;Min_cycle;Max_cycle;Signal;HPM_P1;HPM_P2
2021/03/21 00:01:57;;;;;;;1.52;1.20;;;22.70;29.50;;;;;;5058339;28;20033;-59
2021/03/21 00:04:22;;;;;;;1.05;0.90;;;22.60;29.40;;;;;;5058077;28;20436;-59
2021/03/21 00:06:48;;;;;;;1.55;1.15;;;22.60;29.50;;;;;;5057453;28;20321;-59
2021/03/21 00:09:14;;;;;;;1.10;1.00;;;22.60;29.50;;;;;;5058065;28;20417;-57
2021/03/21 00:11:40;;;;;;;1.33;1.08;;;22.60;29.50;;;;;;5057142;28;20379;-58
2021/03/21 00:14:06;;;;;;;1.45;1.10;;;22.60;29.60;;;;;;5058002;28;20037;-59
2021/03/21 00:16:34;;;;;;;1.33;1.17;;;22.60;29.60;;;;;;5057242;28;20360;-60
2021/03/21 00:19:01;;;;;;;1.63;1.08;;;22.60;29.60;;;;;;5058122;28;20065;-56
2021/03/21 00:21:27;;;;;;;1.35;1.08;;;22.60;29.60;;;;;;5057037;28;20116;-55
2021/03/21 00:23:53;;;;;;;1.10;0.90;;;22.60;29.60;;;;;;5057336;28;20116;-55
2021/03/21 00:26:19;;;;;;;1.00;0.90;;;22.60;29.60;;;;;;5057450;28;20036;-59
2021/03/21 00:28:45;;;;;;;0.93;0.77;;;22.60;29.60;;;;;;5057895;28;20116;-57
2021/03/21 00:31:13;;;;;;;1.42;1.08;;;22.60;29.60;;;;;;5057208;28;20036;-59
2021/03/21 00:33:40;;;;;;;1.00;0.90;;;22.60;29.60;;;;;;5057695;28;20078;-59
2021/03/21 00:36:11;;;;;;;1.83;1.00;;;22.60;29.70;;;;;;5056952;28;20040;-59
2021/03/21 00:38:42;;;;;;;1.63;0.95;;;22.60;29.70;;;;;;5055147;28;20045;-58
2021/03/21 00:41:10;;;;;;;1.10;0.90;;;22.60;29.70;;;;;;5057300;28;20306;-59
2021/03/21 00:43:36;;;;;;;1.25;0.90;;;22.50;29.70;;;;;;5057655;28;20067;-59
2021/03/21 00:46:02;;;;;;;1.20;0.85;;;22.50;29.70;;;;;;5056463;28;20086;-60
2021/03/21 00:48:40;;;;;;;1.20;1.00;;;22.50;29.70;;;;;;5057390;28;20440;-60
2021/03/21 00:51:08;;;;;;;1.85;0.85;;;22.50;29.70;;;;;;5056456;28;20025;-58
2021/03/21 00:53:34;;;;;;;1.83;1.13;;;22.50;29.70;;;;;;5056844;28;20472;-59
2021/03/21 00:56:00;;;;;;;1.30;0.90;;;22.50;29.70;;;;;;5056527;28;20036;-59
2021/03/21 00:58:26;;;;;;;1.40;1.02;;;22.50;29.70;;;;;;5056983;28;20349;-59
2021/03/21 01:00:58;;;;;;;1.42;0.90;;;22.50;29.70;;;;;;5057015;28;20048;-57
2021/03/21 01:03:24;;;;;;;1.20;0.80;;;22.50;29.70;;;;;;5056618;28;20029;-59
2021/03/21 01:05:58;;;;;;;0.82;0.80;;;22.50;29.70;;;;;;5055999;28;20086;-58
2021/03/21 01:08:38;;;;;;;0.68;0.68;;;22.50;29.70;;;;;;5055683;28;20025;-60
2021/03/21 01:11:08;;;;;;;1.00;0.90;;;22.50;29.70;;;;;;5055423;28;20388;-58
2021/03/21 01:13:35;;;;;;;0.63;0.60;;;22.50;29.70;;;;;;5056668;28;20045;-58
2021/03/21 01:16:08;;;;;;;0.63;0.57;;;22.40;29.70;;;;;;5056026;28;20123;-60
2021/03/21 01:18:36;;;;;;;0.63;0.60;;;22.50;29.70;;;;;;5056796;28;20341;-57
2021/03/21 01:21:05;;;;;;;1.02;0.80;;;22.40;29.70;;;;;;5056599;28;20035;-56
2021/03/21 01:23:31;;;;;;;0.70;0.60;;;22.40;29.70;;;;;;5056613;28;20037;-59
2021/03/21 01:25:57;;;;;;;0.90;0.70;;;22.40;29.70;;;;;;5056061;28;20033;-58
2021/03/21 01:28:25;;;;;;;0.73;0.60;;;22.40;29.70;;;;;;5056378;28;20032;-58
2021/03/21 01:30:52;;;;;;;1.00;0.65;;;22.40;29.70;;;;;;5055536;28;20025;-56
2021/03/21 01:33:19;;;;;;;1.00;0.68;;;22.40;29.70;;;;;;5055115;28;20411;-58
2021/03/21 01:35:48;;;;;;;0.75;0.70;;;22.40;29.70;;;;;;5056597;28;20039;-60
2021/03/21 01:38:14;;;;;;;0.50;0.43;;;22.40;29.70;;;;;;5055471;28;20114;-56
2021/03/21 01:40:39;;;;;;;1.00;0.70;;;22.40;29.70;;;;;;5056197;28;20057;-59
2021/03/21 01:43:05;;;;;;;0.60;0.57;;;22.40;29.70;;;;;;5055098;28;20491;-59
2021/03/21 01:45:37;;;;;;;1.23;0.80;;;22.40;29.70;;;;;;5056609;28;20036;-55
2021/03/21 01:48:26;;;;;;;0.82;0.60;;;22.40;29.70;;;;;;5056056;28;20033;-57
2021/03/21 01:50:58;;;;;;;0.47;0.40;;;22.40;29.70;;;;;;5038142;28;20049;-59
2021/03/21 01:53:28;;;;;;;0.70;0.50;;;22.40;29.80;;;;;;5055910;28;20028;-60
2021/03/21 01:55:55;;;;;;;0.77;0.50;;;22.40;29.80;;;;;;5056103;28;20041;-58
2021/03/21 01:58:24;;;;;;;0.50;0.45;;;22.40;29.80;;;;;;5055617;28;20043;-60
2021/03/21 02:00:56;;;;;;;0.65;0.45;;;22.40;29.80;;;;;;5055899;28;20468;-58
2021/03/21 02:03:21;;;;;;;0.70;0.50;;;22.40;29.80;;;;;;5055496;28;20037;-59
2021/03/21 02:05:50;;;;;;;0.73;0.38;;;22.30;29.70;;;;;;5054724;28;20040;-59
2021/03/21 02:08:45;;;;;;;0.65;0.47;;;22.40;29.80;;;;;;5040669;28;20094;-57
2021/03/21 02:11:44;;;;;;;0.47;0.40;;;22.30;29.80;;;;;;5055483;28;20036;-60
2021/03/21 02:14:19;;;;;;;0.75;0.60;;;22.30;29.80;;;;;;5054756;28;20448;-58
2021/03/21 02:17:12;;;;;;;0.30;0.30;;;22.30;29.80;;;;;;5055493;28;20049;-57
2021/03/21 02:19:56;;;;;;;0.40;0.40;;;22.30;29.80;;;;;;5050067;28;20052;-59
2021/03/21 02:22:32;;;;;;;0.70;0.40;;;22.30;29.80;;;;;;5055445;28;20119;-60
2021/03/21 02:25:26;;;;;;;0.35;0.35;;;22.30;29.80;;;;;;5054999;28;20033;-58
2021/03/21 02:28:29;;;;;;;0.50;0.30;;;22.30;29.80;;;;;;5050803;28;20036;-56
2021/03/21 02:31:02;;;;;;;0.40;0.40;;;22.30;29.80;;;;;;5035341;28;20279;-55
2021/03/21 02:33:43;;;;;;;0.65;0.50;;;22.20;29.80;;;;;;5050988;28;20352;-59
2021/03/21 02:36:27;;;;;;;0.40;0.40;;;22.20;29.80;;;;;;5034781;28;20036;-59
2021/03/21 02:38:56;;;;;;;0.38;0.30;;;22.30;29.90;;;;;;5052676;28;20103;-58
2021/03/21 02:41:27;;;;;;;0.65;0.30;;;22.20;29.80;;;;;;5055085;28;20032;-58
2021/03/21 02:43:59;;;;;;;0.50;0.50;;;22.20;29.90;;;;;;5053381;28;20043;-58
2021/03/21 02:46:38;;;;;;;0.40;0.30;;;22.20;29.90;;;;;;5054917;28;20061;-54
2021/03/21 02:49:17;;;;;;;0.40;0.40;;;22.20;29.90;;;;;;5054738;28;20045;-60
2021/03/21 02:51:48;;;;;;;0.82;0.40;;;22.20;29.90;;;;;;5054845;28;20333;-58
2021/03/21 02:54:19;;;;;;;0.60;0.38;;;22.20;29.90;;;;;;5055185;28;20032;-59
2021/03/21 02:56:50;;;;;;;0.50;0.40;;;22.20;29.90;;;;;;5054565;28;20094;-56
2021/03/21 02:59:21;;;;;;;0.30;0.30;;;22.20;30.50;;;;;;5054568;28;20418;-58
2021/03/21 03:01:51;;;;;;;0.38;0.30;;;22.20;30.00;;;;;;5054897;28;20489;-60
2021/03/21 03:04:29;;;;;;;0.32;0.30;;;22.20;30.00;;;;;;5055396;28;20032;-50
2021/03/21 03:07:04;;;;;;;1.00;0.57;;;22.20;30.00;;;;;;5058866;28;20048;-50
2021/03/21 03:09:35;;;;;;;;;;;22.20;30.00;;;;;;5056159;28;20135;-56
2021/03/21 03:12:09;;;;;;;0.52;0.40;;;22.20;30.00;;;;;;5056602;28;20249;-53
2021/03/21 03:14:40;;;;;;;0.40;0.30;;;22.10;30.00;;;;;;5059400;28;20127;-56
2021/03/21 03:17:21;;;;;;;0.70;0.40;;;22.10;30.00;;;;;;5058298;28;20468;-53
2021/03/21 03:20:05;;;;;;;0.50;0.40;;;22.10;30.00;;;;;;5059346;28;20448;-52
2021/03/21 03:22:40;;;;;;;0.30;0.25;;;22.10;30.00;;;;;;5055235;28;20096;-57
2021/03/21 03:25:25;;;;;;;0.50;0.30;;;22.10;30.00;;;;;;5054558;28;20120;-57
2021/03/21 03:28:16;;;;;;;0.30;0.30;;;22.10;30.00;;;;;;5034918;28;20139;-55
2021/03/21 03:30:58;;;;;;;0.20;0.17;;;22.10;30.00;;;;;;5053871;28;20056;-58
2021/03/21 03:33:24;;;;;;;0.55;0.30;;;22.10;30.10;;;;;;5054349;28;20055;-58
2021/03/21 03:35:51;;;;;;;0.40;0.25;;;22.10;30.10;;;;;;5055780;28;20064;-54
2021/03/21 03:38:19;;;;;;;0.50;0.40;;;22.10;30.10;;;;;;5058161;28;20160;-54
2021/03/21 03:40:46;;;;;;;0.82;0.32;;;22.10;30.10;;;;;;5056160;28;20451;-51
2021/03/21 03:43:18;;;;;;;0.40;0.40;;;22.10;30.20;;;;;;5057588;28;20037;-51
2021/03/21 03:46:08;;;;;;;0.30;0.20;;;22.10;30.20;;;;;;5057136;28;20131;-55
2021/03/21 03:49:30;;;;;;;0.43;0.30;;;22.10;30.20;;;;;;5055781;28;20029;-52
2021/03/21 03:52:33;;;;;;;0.65;0.40;;;22.10;30.20;;;;;;4953506;28;20051;-57
2021/03/21 03:55:04;;;;;;;0.40;0.38;;;22.00;30.20;;;;;;5046408;28;20067;-59
2021/03/21 03:57:54;;;;;;;0.32;0.30;;;22.00;30.20;;;;;;5055218;28;20029;-54
2021/03/21 04:00:38;;;;;;;0.30;0.30;;;22.00;30.30;;;;;;5052932;28;20060;-56
2021/03/21 04:03:16;;;;;;;0.32;0.30;;;22.00;30.30;;;;;;5054004;28;20349;-59
2021/03/21 04:05:55;;;;;;;0.32;0.30;;;22.00;30.30;;;;;;5051919;28;20440;-58
2021/03/21 04:08:42;;;;;;;0.32;0.30;;;22.00;30.30;;;;;;5052440;28;20060;-57
2021/03/21 04:11:19;;;;;;;0.20;0.20;;;22.00;30.40;;;;;;5034344;28;20049;-59
2021/03/21 04:14:08;;;;;;;0.40;0.30;;;22.00;30.40;;;;;;5052225;28;20037;-59
2021/03/21 04:16:46;;;;;;;0.60;0.32;;;22.00;30.50;;;;;;5052052;28;20060;-59
2021/03/21 04:19:13;;;;;;;0.45;0.30;;;22.00;30.50;;;;;;5034401;28;20080;-56
2021/03/21 04:21:42;;;;;;;0.73;0.40;;;22.00;30.50;;;;;;5037809;28;20040;-59
2021/03/21 04:24:13;;;;;;;2.05;0.50;;;22.00;30.60;;;;;;5053435;28;20028;-58
2021/03/21 04:27:06;;;;;;;0.40;0.30;;;22.00;30.60;;;;;;5053320;28;20112;-58
2021/03/21 04:29:49;;;;;;;1.70;0.40;;;22.00;30.60;;;;;;5053401;28;20044;-60
2021/03/21 04:32:23;;;;;;;0.57;0.40;;;22.00;30.60;;;;;;5053734;28;20033;-56
2021/03/21 04:34:51;;;;;;;1.60;0.60;;;22.00;30.60;;;;;;5053119;28;20187;-56
2021/03/21 04:37:19;;;;;;;0.65;0.40;;;22.00;30.60;;;;;;5051733;28;20322;-57
2021/03/21 04:39:48;;;;;;;0.75;0.43;;;22.00;30.60;;;;;;5053418;28;20332;-58
2021/03/21 04:42:21;;;;;;;0.50;0.40;;;22.00;30.70;;;;;;5053893;28;20025;-59
2021/03/21 04:44:50;;;;;;;0.43;0.32;;;22.00;30.70;;;;;;5057328;28;20040;-59
2021/03/21 04:47:40;;;;;;;0.32;0.30;;;22.00;30.70;;;;;;5055462;28;20032;-56
2021/03/21 04:50:07;;;;;;;0.30;0.30;;;22.00;30.70;;;;;;5052070;28;20441;-60
2021/03/21 04:52:47;;;;;;;0.30;0.30;;;22.00;30.70;;;;;;5057083;28;20029;-59
2021/03/21 04:55:27;;;;;;;0.40;0.32;;;22.00;30.70;;;;;;5052683;28;20037;-58
2021/03/21 04:57:57;;;;;;;0.60;0.40;;;22.00;30.70;;;;;;5055945;28;20490;-57
2021/03/21 05:00:37;;;;;;;0.90;0.47;;;22.00;30.70;;;;;;5056879;28;20036;-59
2021/03/21 05:03:32;;;;;;;0.50;0.50;;;22.00;30.70;;;;;;5047306;28;20029;-60
2021/03/21 05:06:05;;;;;;;1.33;0.40;;;22.00;30.70;;;;;;5055607;28;20033;-59
2021/03/21 05:08:37;;;;;;;0.85;0.40;;;22.00;30.80;;;;;;5056262;28;20044;-59
2021/03/21 05:11:06;;;;;;;0.32;0.32;;;22.00;30.80;;;;;;5056682;28;20044;-60
2021/03/21 05:13:44;;;;;;;0.65;0.30;;;21.90;30.80;;;;;;5056525;28;20040;-56
2021/03/21 05:16:43;;;;;;;0.90;0.50;;;21.90;30.70;;;;;;5056071;28;20410;-58
2021/03/21 05:19:22;;;;;;;0.73;0.50;;;22.00;30.80;;;;;;5056345;28;20436;-60
2021/03/21 05:22:15;;;;;;;0.63;0.50;;;21.90;30.80;;;;;;5055022;28;20040;-59
2021/03/21 05:24:48;;;;;;;0.57;0.40;;;21.90;30.80;;;;;;5036899;28;20041;-56
2021/03/21 05:27:35;;;;;;;0.50;0.50;;;21.90;30.80;;;;;;5038878;28;20428;-59
2021/03/21 05:30:10;;;;;;;0.68;0.30;;;21.90;30.80;;;;;;5056268;28;20029;-56
2021/03/21 05:32:37;;;;;;;0.75;0.30;;;21.90;30.80;;;;;;5055783;28;20037;-58
2021/03/21 05:35:06;;;;;;;0.77;0.60;;;21.90;30.80;;;;;;5056170;28;20076;-61
2021/03/21 05:37:41;;;;;;;1.20;0.40;;;21.90;30.80;;;;;;5056146;28;20025;-59
2021/03/21 05:40:33;;;;;;;0.77;0.60;;;21.90;30.80;;;;;;5056027;28;20029;-56
2021/03/21 05:43:34;;;;;;;0.55;0.40;;;21.90;30.80;;;;;;5055412;28;20071;-59
2021/03/21 05:46:12;;;;;;;0.75;0.30;;;21.90;30.80;;;;;;5056423;28;20064;-57
2021/03/21 05:49:05;;;;;;;0.65;0.40;;;21.90;30.80;;;;;;5055885;28;20388;-57
2021/03/21 05:51:31;;;;;;;2.58;0.52;;;21.90;30.80;;;;;;5056210;28;20448;-60
2021/03/21 05:54:18;;;;;;;2.08;0.50;;;21.90;30.80;;;;;;5055587;28;20121;-57
2021/03/21 05:57:03;;;;;;;0.90;0.40;;;21.90;30.80;;;;;;5055653;28;20539;-57
2021/03/21 05:59:50;;;;;;;0.82;0.40;;;21.90;30.80;;;;;;5055113;28;20044;-60
2021/03/21 06:02:40;;;;;;;1.10;0.40;;;21.90;30.80;;;;;;5055315;28;20029;-59
2021/03/21 06:05:06;;;;;;;1.05;0.50;;;21.90;30.80;;;;;;5054730;28;20067;-59
2021/03/21 06:07:55;;;;;;;0.47;0.40;;;21.90;30.80;;;;;;5053785;28;20057;-60
2021/03/21 06:10:29;;;;;;;1.35;0.50;;;21.90;30.70;;;;;;5055394;28;20024;-58
2021/03/21 06:13:18;;;;;;;0.80;0.47;;;21.90;30.70;;;;;;5055316;28;20048;-60
2021/03/21 06:16:14;;;;;;;0.40;0.30;;;21.80;30.70;;;;;;5055484;28;20040;-59
2021/03/21 06:19:02;;;;;;;0.40;0.20;;;21.80;30.70;;;;;;5054974;28;20045;-57
2021/03/21 06:21:33;;;;;;;0.47;0.38;;;21.80;30.60;;;;;;5055958;28;20033;-59
2021/03/21 06:24:17;;;;;;;0.85;0.40;;;21.80;30.70;;;;;;5055108;28;20100;-56
2021/03/21 06:26:59;;;;;;;0.30;0.13;;;21.80;30.60;;;;;;5055833;28;20403;-57
2021/03/21 06:29:50;;;;;;;0.75;0.30;;;21.80;30.60;;;;;;5052190;28;20024;-56
2021/03/21 06:32:27;;;;;;;0.73;0.35;;;21.80;30.60;;;;;;5054770;28;20020;-56
2021/03/21 06:35:11;;;;;;;1.77;0.40;;;21.80;30.60;;;;;;5055226;28;20419;-57
2021/03/21 06:38:10;;;;;;;0.30;0.20;;;21.80;30.70;;;;;;5054774;28;20033;-61
2021/03/21 06:40:54;;;;;;;0.38;0.30;;;21.80;30.70;;;;;;5055357;28;20024;-58
2021/03/21 06:43:39;;;;;;;1.52;0.45;;;21.80;30.70;;;;;;5036982;28;20064;-59
2021/03/21 06:46:23;;;;;;;0.60;0.35;;;21.80;30.70;;;;;;5046168;28;20041;-56
2021/03/21 06:49:12;;;;;;;1.08;0.28;;;21.80;30.70;;;;;;5054539;28;20033;-59
2021/03/21 06:51:50;;;;;;;0.60;0.40;;;21.80;30.80;;;;;;5054111;28;20114;-56
2021/03/21 06:54:21;;;;;;;0.50;0.30;;;21.80;30.80;;;;;;5055189;28;20116;-58
2021/03/21 06:57:18;;;;;;;0.50;0.40;;;21.80;30.80;;;;;;5054493;28;20028;-56
2021/03/21 07:00:16;;;;;;;0.75;0.30;;;21.80;30.80;;;;;;5055201;28;20025;-58
2021/03/21 07:03:33;;;;;;;1.23;0.50;;;21.80;30.90;;;;;;5021272;28;20049;-61
2021/03/21 07:06:23;;;;;;;1.23;0.40;;;21.80;30.80;;;;;;5034206;28;20087;-58
2021/03/21 07:09:04;;;;;;;0.95;0.38;;;21.80;30.80;;;;;;5050414;28;20125;-58
2021/03/21 07:11:39;;;;;;;1.52;0.30;;;21.80;30.80;;;;;;5052456;28;20103;-58
2021/03/21 07:14:23;;;;;;;;;;;21.80;30.90;;;;;;5055157;28;20032;-59
2021/03/21 07:16:55;;;;;;;0.73;0.25;;;21.70;30.90;;;;;;5054204;28;19912;-59
2021/03/21 07:19:46;;;;;;;1.50;0.50;;;21.70;30.90;;;;;;5053838;28;20033;-56
2021/03/21 07:23:04;;;;;;;1.10;0.60;;;21.80;30.90;;;;;;5054230;28;20036;-60
2021/03/21 07:26:14;;;;;;;1.05;0.50;;;21.80;30.90;;;;;;4990739;28;20042;-58
2021/03/21 07:29:24;;;;;;;0.98;0.50;;;21.70;30.90;;;;;;4979957;28;20050;-57
2021/03/21 07:31:55;;;;;;;0.98;0.40;;;21.70;30.80;;;;;;5048140;28;20336;-46
2021/03/21 07:34:36;;;;;;;1.73;0.60;;;21.70;30.80;;;;;;5054079;28;20091;-55
2021/03/21 07:37:27;;;;;;;2.05;0.38;;;21.70;30.80;;;;;;5054174;28;20025;-59
2021/03/21 07:39:55;;;;;;;0.75;0.30;;;21.80;30.80;;;;;;5053780;28;20470;-58
2021/03/21 07:42:33;;;;;;;1.42;0.40;;;21.70;30.80;;;;;;5053323;28;20033;-58
2021/03/21 07:45:23;;;;;;;0.70;0.40;;;21.80;30.80;;;;;;5053866;28;20017;-60
2021/03/21 07:48:09;;;;;;;1.65;0.50;;;21.80;30.90;;;;;;5052069;28;20404;-52
2021/03/21 07:51:11;;;;;;;1.25;0.50;;;21.80;30.90;;;;;;5052394;28;20052;-58
2021/03/21 07:53:52;;;;;;;1.83;0.52;;;21.80;30.90;;;;;;5053108;28;20041;-61
2021/03/21 07:56:32;;;;;;;2.35;0.52;;;21.90;31.00;;;;;;5052517;28;20459;-59
2021/03/21 07:59:13;;;;;;;1.88;0.45;;;21.90;30.90;;;;;;5036298;28;20077;-61
2021/03/21 08:01:39;;;;;;;2.40;0.73;;;22.00;30.90;;;;;;5051848;28;20033;-63
2021/03/21 08:04:12;;;;;;;1.52;0.50;;;22.00;30.70;;;;;;5051513;28;20032;-60
2021/03/21 08:06:42;;;;;;;2.17;0.73;;;22.10;30.60;;;;;;5050304;28;20037;-54
2021/03/21 08:09:18;;;;;;;1.13;0.50;;;22.10;30.40;;;;;;5048390;28;20664;-56
2021/03/21 08:11:53;;;;;;;1.55;0.60;;;22.20;30.40;;;;;;5048739;28;20040;-58
2021/03/21 08:14:30;;;;;;;1.45;0.60;;;22.30;31.20;;;;;;5044819;28;20045;-54
2021/03/21 08:17:02;;;;;;;1.85;0.68;;;22.30;30.60;;;;;;5046610;28;20068;-59
2021/03/21 08:19:32;;;;;;;1.23;0.40;;;22.40;30.70;;;;;;5056269;28;20391;-60
2021/03/21 08:21:58;;;;;;;1.17;0.40;;;22.50;30.60;;;;;;5053790;28;20039;-62
2021/03/21 08:24:35;;;;;;;1.15;0.40;;;22.60;30.50;;;;;;5052710;28;20036;-58
2021/03/21 08:27:03;;;;;;;1.77;0.50;;;22.60;30.30;;;;;;5048345;28;20043;-62
2021/03/21 08:29:57;;;;;;;1.02;0.50;;;22.70;30.20;;;;;;5053619;28;20506;-61
2021/03/21 08:32:23;;;;;;;2.53;0.63;;;22.80;30.00;;;;;;5052885;28;20043;-60
2021/03/21 08:34:49;;;;;;;1.23;0.63;;;22.80;30.00;;;;;;5054611;28;20041;-59
2021/03/21 08:37:32;;;;;;;3.03;0.80;;;22.80;29.90;;;;;;5049814;28;20033;-60
2021/03/21 08:40:40;;;;;;;1.33;0.55;;;22.90;29.80;;;;;;5048056;28;20080;-60
2021/03/21 08:43:16;;;;;;;2.00;0.80;;;22.90;29.60;;;;;;5039200;28;20051;-61
2021/03/21 08:45:46;;;;;;;1.65;0.63;;;23.00;29.60;;;;;;5046324;28;20029;-60
2021/03/21 08:48:16;;;;;;;2.78;0.90;;;23.00;29.50;;;;;;5044818;28;20448;-59
2021/03/21 08:50:44;;;;;;;3.22;1.10;;;23.00;29.40;;;;;;5044091;28;20371;-58
2021/03/21 08:53:29;;;;;;;1.95;0.88;;;23.10;29.30;;;;;;5043719;28;20052;-60
2021/03/21 08:56:14;;;;;;;2.35;0.88;;;23.10;29.20;;;;;;5045878;28;20021;-61
2021/03/21 08:58:41;;;;;;;;;;;23.10;29.10;;;;;;5046798;28;20098;-60
2021/03/21 09:01:20;;;;;;;2.03;0.75;;;23.10;29.20;;;;;;5047759;28;19920;-61
2021/03/21 09:03:47;;;;;;;2.45;0.70;;;23.10;29.10;;;;;;5048438;28;20093;-55
2021/03/21 09:06:34;;;;;;;2.60;0.98;;;23.10;29.10;;;;;;5045445;28;20033;-57
2021/03/21 09:09:21;;;;;;;2.22;0.80;;;23.10;29.00;;;;;;5044933;28;20459;-61
2021/03/21 09:11:54;;;;;;;2.72;1.00;;;23.10;28.90;;;;;;5034965;28;20341;-56
2021/03/21 09:14:30;;;;;;;2.72;1.02;;;23.10;28.90;;;;;;5045644;28;20049;-57
2021/03/21 09:17:25;;;;;;;2.65;1.17;;;23.20;28.90;;;;;;5045555;28;20060;-57
2021/03/21 09:19:59;;;;;;;3.35;1.15;;;23.10;28.70;;;;;;5043219;28;20073;-60
2021/03/21 09:22:38;;;;;;;2.85;1.05;;;23.20;28.70;;;;;;5045149;28;20033;-49
2021/03/21 09:25:26;;;;;;;2.58;0.93;;;23.10;28.60;;;;;;5044847;28;20040;-55
2021/03/21 09:27:55;;;;;;;2.75;1.00;;;23.20;28.60;;;;;;5047068;28;20115;-58
2021/03/21 09:30:42;;;;;;;3.10;1.10;;;23.10;28.50;;;;;;5043052;28;20040;-59
2021/03/21 09:33:24;;;;;;;3.08;1.38;;;23.10;28.40;;;;;;5029063;28;20038;-58
2021/03/21 09:36:02;;;;;;;4.10;1.10;;;23.20;28.50;;;;;;5060420;28;20116;-61
2021/03/21 09:38:35;;;;;;;4.05;1.00;;;23.10;28.40;;;;;;5045319;28;20476;-59
2021/03/21 09:41:07;;;;;;;2.47;1.02;;;23.20;28.40;;;;;;5046748;28;20040;-59
2021/03/21 09:43:36;;;;;;;4.85;1.20;;;23.20;28.40;;;;;;5044578;28;20071;-60
2021/03/21 09:46:43;;;;;;;2.65;1.10;;;23.20;28.30;;;;;;5044105;28;20040;-58
2021/03/21 09:49:25;;;;;;;4.68;1.42;;;23.20;28.30;;;;;;5047819;28;20399;-58
2021/03/21 09:52:00;;;;;;;2.55;1.00;;;23.10;28.20;;;;;;5045520;28;20071;-60
2021/03/21 09:54:35;;;;;;;3.22;1.13;;;23.10;28.20;;;;;;5045538;28;20044;-59
2021/03/21 09:57:28;;;;;;;4.32;1.50;;;23.10;28.20;;;;;;5053745;28;20033;-58
2021/03/21 10:00:14;;;;;;;3.13;1.10;;;23.10;28.10;;;;;;5053684;28;20405;-57
2021/03/21 10:02:50;;;;;;;3.78;1.23;;;23.10;28.10;;;;;;5035392;28;20123;-60
2021/03/21 10:05:34;;;;;;;2.50;1.20;;;23.10;28.10;;;;;;5043416;28;20050;-60
2021/03/21 10:08:14;;;;;;;2.55;1.00;;;23.10;28.10;;;;;;5045883;28;20063;-59
2021/03/21 10:11:02;;;;;;;3.38;1.15;;;23.10;28.10;;;;;;5044213;28;20531;-59
2021/03/21 10:13:33;;;;;;;2.58;1.30;;;23.10;28.10;;;;;;5046492;28;20090;-59
2021/03/21 10:16:09;;;;;;;2.78;1.15;;;23.10;28.10;;;;;;5043758;28;20036;-57
2021/03/21 10:18:55;;;;;;;3.75;1.30;;;23.10;28.10;;;;;;5043931;28;20033;-58
2021/03/21 10:21:24;;;;;;;2.92;1.25;;;23.10;28.10;;;;;;5047224;28;20101;-59
2021/03/21 10:24:00;;;;;;;3.05;1.10;;;23.10;28.10;;;;;;5045327;28;20041;-55
2021/03/21 10:26:29;;;;;;;4.90;1.25;;;23.00;28.10;;;;;;5044394;28;20174;-57
2021/03/21 10:29:00;;;;;;;6.20;1.80;;;23.00;28.10;;;;;;5047652;28;20048;-56
2021/03/21 10:31:34;;;;;;;3.10;1.17;;;23.00;28.10;;;;;;5041200;28;20030;-54
2021/03/21 10:34:03;;;;;;;4.00;1.20;;;23.10;28.10;;;;;;5050913;28;20071;-56
2021/03/21 10:36:39;;;;;;;4.30;1.38;;;23.10;28.00;;;;;;5049287;28;20052;-45
2021/03/21 10:39:23;;;;;;;5.28;1.70;;;23.10;27.90;;;;;;5051459;28;20120;-59
2021/03/21 10:42:05;;;;;;;5.22;1.42;;;23.00;27.80;;;;;;5046285;28;20033;-60
2021/03/21 10:44:34;;;;;;;5.30;1.63;;;22.90;27.70;;;;;;5049872;28;20033;-59
2021/03/21 10:47:03;;;;;;;10.98;4.85;;;22.90;27.80;;;;;;5050571;28;20028;-50
2021/03/21 10:49:51;;;;;;;11.18;5.75;;;22.80;28.20;;;;;;5047852;28;20051;-53
2021/03/21 10:52:26;;;;;;;11.98;6.00;;;22.80;29.00;;;;;;5043387;28;20133;-59
2021/03/21 10:55:10;;;;;;;10.00;5.45;;;22.70;29.60;;;;;;5043295;28;20056;-59
2021/03/21 10:57:45;;;;;;;8.70;4.53;;;22.70;30.00;;;;;;5046729;28;20681;-54
2021/03/21 11:00:12;;;;;;;7.97;3.53;;;22.60;30.00;;;;;;5046647;28;20029;-55
2021/03/21 11:02:44;;;;;;;9.35;3.72;;;22.60;30.00;;;;;;5051084;28;20033;-61
2021/03/21 11:05:33;;;;;;;8.07;4.18;;;22.60;30.00;;;;;;5051399;28;20444;-61
2021/03/21 11:08:18;;;;;;;10.57;5.55;;;22.60;30.70;;;;;;5049274;28;20436;-60
2021/03/21 11:10:43;;;;;;;10.98;5.65;;;22.50;31.50;;;;;;5051085;28;20112;-49
2021/03/21 11:13:13;;;;;;;11.98;5.55;;;22.50;32.30;;;;;;5049862;28;20163;-56
2021/03/21 11:15:45;;;;;;;11.30;5.95;;;22.50;33.00;;;;;;5048816;28;20025;-59
2021/03/21 11:18:30;;;;;;;14.10;7.07;;;22.50;33.40;;;;;;5043769;28;22069;-59
2021/03/21 11:21:04;;;;;;;13.07;6.32;;;22.60;33.70;;;;;;5044830;28;20028;-61
2021/03/21 11:23:42;;;;;;;12.40;6.63;;;22.60;34.10;;;;;;5048805;28;20029;-56
2021/03/21 11:26:18;;;;;;;14.93;6.57;;;22.60;34.70;;;;;;5046332;28;20037;-62
2021/03/21 11:28:45;;;;;;;14.50;6.45;;;22.60;35.40;;;;;;5047008;28;20103;-62
2021/03/21 11:31:27;;;;;;;11.68;5.80;;;22.70;35.70;;;;;;5050870;28;20033;-55
2021/03/21 11:33:52;;;;;;;14.95;5.72;;;22.70;35.80;;;;;;5048206;28;20435;-64
2021/03/21 11:36:24;;;;;;;12.43;5.32;;;22.70;35.80;;;;;;5050180;28;20052;-61
2021/03/21 11:38:52;;;;;;;10.15;5.20;;;22.70;36.00;;;;;;5048990;28;20336;-63
2021/03/21 11:41:30;;;;;;;12.40;5.35;;;22.70;36.30;;;;;;5047646;28;20166;-63
2021/03/21 11:44:21;;;;;;;9.63;3.88;;;22.80;36.10;;;;;;5043926;28;20055;-61
2021/03/21 11:46:49;;;;;;;6.47;3.15;;;22.90;35.50;;;;;;5045122;28;20029;-58
2021/03/21 11:49:16;;;;;;;7.57;3.47;;;22.80;34.80;;;;;;5048408;28;20029;-58
2021/03/21 11:51:46;;;;;;;7.25;3.22;;;22.90;34.80;;;;;;5046368;28;20038;-60
2021/03/21 11:54:18;;;;;;;6.00;2.53;;;22.90;33.60;;;;;;5050171;28;20052;-58
2021/03/21 11:56:54;;;;;;;8.13;2.53;;;22.90;33.10;;;;;;5052323;28;20029;-61
2021/03/21 11:59:27;;;;;;;8.60;2.90;;;22.90;32.00;;;;;;5054988;28;20385;-61
2021/03/21 12:01:59;;;;;;;4.43;1.83;;;22.80;31.10;;;;;;5051147;28;20021;-62
2021/03/21 12:04:43;;;;;;;4.80;1.83;;;22.80;30.80;;;;;;5052448;28;20091;-61
2021/03/21 12:07:22;;;;;;;4.73;2.00;;;22.70;30.70;;;;;;5050789;28;20715;-58
2021/03/21 12:09:50;;;;;;;8.40;2.45;;;22.70;30.70;;;;;;5053070;28;20029;-59
2021/03/21 12:12:38;;;;;;;6.38;2.15;;;22.70;30.70;;;;;;5052043;28;21586;-59
2021/03/21 12:15:24;;;;;;;4.35;2.10;;;22.70;30.50;;;;;;5050190;28;20697;-60
2021/03/21 12:18:20;;;;;;;5.28;2.28;;;22.70;30.50;;;;;;5049013;28;20037;-56
2021/03/21 12:20:51;;;;;;;4.72;2.03;;;22.80;30.50;;;;;;5040312;28;20037;-59
2021/03/21 12:23:23;;;;;;;4.95;2.03;;;22.70;30.40;;;;;;5053502;28;20031;-60
2021/03/21 12:26:08;;;;;;;5.50;2.33;;;22.70;30.30;;;;;;5050207;28;20032;-62
2021/03/21 12:28:37;;;;;;;5.20;1.88;;;22.70;30.20;;;;;;5051555;28;20053;-57
2021/03/21 12:31:17;;;;;;;5.30;2.00;;;22.70;30.20;;;;;;5053858;28;20025;-63
2021/03/21 12:33:44;;;;;;;6.55;2.47;;;22.70;30.10;;;;;;5051407;28;20045;-61
2021/03/21 12:36:27;;;;;;;3.92;1.80;;;22.60;30.00;;;;;;5049421;28;20096;-61
2021/03/21 12:39:19;;;;;;;5.30;2.10;;;22.70;30.00;;;;;;5047080;28;20060;-63
2021/03/21 12:41:46;;;;;;;4.65;2.08;;;22.60;29.90;;;;;;5050136;28;20441;-59
2021/03/21 12:44:22;;;;;;;5.07;2.20;;;22.60;29.90;;;;;;5054105;28;20036;-57
2021/03/21 12:47:08;;;;;;;4.18;1.70;;;22.60;29.80;;;;;;5052108;28;20527;-59
2021/03/21 12:49:47;;;;;;;8.20;2.30;;;22.60;29.80;;;;;;5036234;28;20453;-60
2021/03/21 12:52:31;;;;;;;4.47;1.92;;;22.60;29.80;;;;;;5050375;28;20039;-60
2021/03/21 12:54:57;;;;;;;3.60;1.85;;;22.60;29.70;;;;;;5050928;28;20051;-62
2021/03/21 12:57:25;;;;;;;5.03;1.98;;;22.50;29.70;;;;;;5050599;28;20021;-60
2021/03/21 12:59:52;;;;;;;5.55;2.30;;;22.60;29.70;;;;;;5052568;28;20094;-59
2021/03/21 13:02:34;;;;;;;6.15;2.22;;;22.50;29.60;;;;;;5048335;28;20147;-55
2021/03/21 13:05:06;;;;;;;4.70;1.75;;;22.60;29.60;;;;;;5051135;28;20337;-56
2021/03/21 13:07:32;;;;;;;4.28;1.95;;;22.60;29.60;;;;;;5054311;28;20065;-56
2021/03/21 13:09:58;;;;;;;5.97;1.92;;;22.50;29.60;;;;;;5055321;28;20024;-61
2021/03/21 13:12:26;;;;;;;5.57;2.15;;;22.50;29.60;;;;;;5053109;28;20631;-54
2021/03/21 13:14:52;;;;;;;5.00;2.10;;;22.50;29.50;;;;;;5055190;28;20063;-54
2021/03/21 13:17:19;;;;;;;4.28;1.65;;;22.50;29.50;;;;;;5053439;28;20074;-55
2021/03/21 13:19:45;;;;;;;4.57;1.88;;;22.50;29.40;;;;;;5054995;28;20025;-54
2021/03/21 13:22:11;;;;;;;3.60;1.63;;;22.50;29.40;;;;;;5055800;28;20033;-55
2021/03/21 13:24:39;;;;;;;4.63;1.80;;;22.50;29.40;;;;;;5054908;28;20387;-56
2021/03/21 13:27:06;;;;;;;4.72;1.90;;;22.50;29.30;;;;;;5046065;28;20457;-54
2021/03/21 13:29:33;;;;;;;5.75;1.88;;;22.60;29.40;;;;;;5055176;28;20036;-56
2021/03/21 13:31:59;;;;;;;3.70;1.60;;;22.60;29.40;;;;;;5054526;28;20044;-57
2021/03/21 13:34:31;;;;;;;7.25;2.00;;;22.50;29.30;;;;;;5050241;28;20034;-56
2021/03/21 13:37:05;;;;;;;3.97;1.80;;;22.60;29.30;;;;;;5050166;28;20025;-57
2021/03/21 13:39:33;;;;;;;5.68;2.28;;;22.60;29.30;;;;;;5051531;28;20516;-57